Time;durP1;ratioP1;P1;durP2;ratioP2;P2;SDS_P1;SDS_P2;PMS_P1;PMS_P2;Temp;Humidity;BMP_temperature;BMP_pressure;BME280_temperature;BME280_humidity;BME280_pressure;Samples;Min_cycle;Max_cycle;Signal;HPM_P1;HPM_P2
2023/08/19 00:02:12;;;;;;;19.03;16.67;;;19.60;99.90;19.20;100771;;;;592294;239;24043;-85
2023/08/19 00:04:40;;;;;;;18.57;14.47;;;19.60;99.90;19.20;100765;;;;591828;239;24025;-81
2023/08/19 00:07:08;;;;;;;23.27;15.00;;;19.60;99.90;19.20;100769;;;;591858;239;23086;-84
2023/08/19 00:09:38;;;;;;;16.60;14.33;;;19.60;99.90;19.20;100763;;;;591713;239;23087;-81
2023/08/19 00:12:07;;;;;;;18.27;14.20;;;19.50;99.90;19.20;100759;;;;591330;239;23049;-80
2023/08/19 00:14:32;;;;;;;17.90;14.03;;;19.50;99.90;19.20;100760;;;;588546;239;24024;-79
2023/08/19 00:17:00;;;;;;;18.23;14.53;;;19.50;99.90;19.20;100761;;;;591414;239;23061;-79
2023/08/19 00:19:28;;;;;;;14.00;12.50;;;19.60;99.90;19.30;100758;;;;591353;239;23141;-79
2023/08/19 00:21:59;;;;;;;24.67;19.87;;;19.60;99.90;19.30;100754;;;;585388;240;35118;-80
2023/08/19 00:24:24;;;;;;;20.47;16.53;;;19.60;99.90;19.30;100757;;;;587628;240;24087;-80
2023/08/19 00:26:53;;;;;;;17.87;14.57;;;19.60;99.90;19.30;100762;;;;590732;240;23056;-80
2023/08/19 00:29:22;;;;;;;21.67;14.43;;;19.60;99.90;19.30;100758;;;;590534;240;24034;-81
2023/08/19 00:31:50;;;;;;;18.10;14.93;;;19.60;99.90;19.30;100761;;;;590949;240;24069;-80
2023/08/19 00:34:18;;;;;;;18.17;14.87;;;19.60;99.90;19.30;100759;;;;590809;240;23069;-81
2023/08/19 00:36:46;;;;;;;17.30;13.87;;;19.60;99.90;19.30;100763;;;;591250;240;24021;-81
2023/08/19 00:39:15;;;;;;;17.83;14.53;;;19.60;99.90;19.30;100766;;;;590778;240;23063;-81
2023/08/19 00:41:44;;;;;;;15.80;13.90;;;19.60;99.90;19.30;100765;;;;590881;240;24035;-81
2023/08/19 00:44:12;;;;;;;16.97;14.00;;;19.60;99.90;19.30;100763;;;;591246;240;23045;-80
2023/08/19 00:46:41;;;;;;;14.30;13.00;;;19.60;99.90;19.30;100751;;;;591489;240;23049;-80
2023/08/19 00:49:12;;;;;;;16.00;14.37;;;19.60;99.90;19.30;100752;;;;588160;244;23195;-81
2023/08/19 00:51:37;;;;;;;15.70;13.73;;;19.60;99.90;19.30;100747;;;;591421;240;24059;-82
2023/08/19 00:54:09;;;;;;;20.20;14.10;;;19.60;99.90;19.40;100754;;;;591220;240;24079;-80
2023/08/19 00:56:33;;;;;;;16.67;13.67;;;19.70;99.90;19.40;100750;;;;597522;237;24088;-80
2023/08/19 00:59:01;;;;;;;16.57;13.43;;;19.70;99.90;19.30;100747;;;;592412;239;24102;-82
2023/08/19 01:01:30;;;;;;;17.70;13.20;;;19.70;99.90;19.30;100750;;;;592209;239;24098;-82
2023/08/19 01:03:58;;;;;;;14.90;12.20;;;19.70;99.90;19.40;100757;;;;592078;239;23088;-79
2023/08/19 01:06:26;;;;;;;15.37;13.77;;;19.60;99.90;19.30;100750;;;;591633;239;24033;-80
2023/08/19 01:09:04;;;;;;;16.93;13.43;;;19.60;99.90;19.30;100741;;;;576335;245;23074;-80
2023/08/19 01:11:43;;;;;;;16.33;13.50;;;19.70;99.90;19.30;100731;;;;591060;239;24073;-80
2023/08/19 01:14:38;;;;;;;17.87;13.50;;;19.60;99.90;19.30;100739;;;;588494;239;24028;-80
2023/08/19 01:17:06;;;;;;;19.40;13.93;;;19.60;99.90;19.30;100740;;;;591689;242;24065;-81
2023/08/19 01:19:34;;;;;;;15.60;13.67;;;19.60;99.90;19.30;100725;;;;582485;242;23071;-80
2023/08/19 01:22:05;;;;;;;17.33;14.37;;;19.60;99.90;19.30;100723;;;;586166;239;23067;-80
2023/08/19 01:24:42;;;;;;;20.23;13.70;;;19.60;99.90;19.30;100725;;;;590541;239;24103;-81
2023/08/19 01:27:07;;;;;;;20.00;12.90;;;19.70;99.90;19.30;100724;;;;590774;239;24029;-79
2023/08/19 01:29:36;;;;;;;15.53;13.97;;;19.60;99.90;19.30;100725;;;;574600;245;24080;-80
2023/08/19 01:32:06;;;;;;;17.30;13.90;;;19.60;99.90;19.30;100720;;;;594145;239;24089;-79
2023/08/19 01:34:33;;;;;;;17.70;14.90;;;19.60;99.90;19.30;100729;;;;590745;240;23052;-80
2023/08/19 01:37:03;;;;;;;17.57;14.33;;;19.60;99.90;19.40;100733;;;;590944;240;24059;-79
2023/08/19 01:39:31;;;;;;;20.17;15.57;;;19.70;99.90;19.40;100737;;;;590135;240;24023;-80
2023/08/19 01:41:59;;;;;;;17.93;14.43;;;19.60;99.90;19.40;100740;;;;590549;240;24076;-79
2023/08/19 01:44:28;;;;;;;17.57;14.00;;;19.70;99.90;19.40;100748;;;;588393;240;24060;-80
2023/08/19 01:46:57;;;;;;;18.80;15.37;;;19.60;99.90;19.30;100735;;;;590942;240;23048;-80
2023/08/19 01:49:26;;;;;;;19.83;14.40;;;19.60;99.90;19.30;100731;;;;591203;240;24013;-82
2023/08/19 01:51:53;;;;;;;19.83;15.03;;;19.50;99.90;19.20;100741;;;;591583;240;23056;-81
2023/08/19 01:54:21;;;;;;;20.17;14.60;;;19.50;99.90;19.20;100739;;;;591305;240;24052;-80
2023/08/19 01:56:49;;;;;;;18.73;14.17;;;19.50;99.90;19.20;100740;;;;592078;240;23143;-83
2023/08/19 01:59:17;;;;;;;17.60;14.40;;;19.50;99.90;19.20;100733;;;;591286;240;23063;-85
2023/08/19 02:01:45;;;;;;;16.93;14.93;;;19.40;99.90;19.10;100732;;;;592245;240;24040;-81
2023/08/19 02:04:13;;;;;;;21.47;16.03;;;19.40;99.90;19.10;100737;;;;591402;240;24008;-80
2023/08/19 02:06:41;;;;;;;24.00;15.90;;;19.40;99.90;19.10;100728;;;;591671;240;23053;-81
2023/08/19 02:09:09;;;;;;;17.87;14.77;;;19.40;99.90;19.10;100726;;;;593365;239;24066;-82
2023/08/19 02:11:40;;;;;;;21.70;14.43;;;19.40;99.90;19.10;100727;;;;593172;239;24015;-86
2023/08/19 02:14:05;;;;;;;16.90;14.37;;;19.40;99.90;19.10;100726;;;;592553;239;24160;-82
2023/08/19 02:16:33;;;;;;;22.97;14.97;;;19.30;99.90;19.10;100733;;;;592666;239;24031;-83
2023/08/19 02:19:01;;;;;;;16.23;14.57;;;19.40;99.90;19.10;100734;;;;601857;239;23068;-81
2023/08/19 02:21:30;;;;;;;20.57;15.83;;;19.40;99.90;19.10;100724;;;;589187;239;23099;-81
2023/08/19 02:23:58;;;;;;;20.90;15.80;;;19.30;99.90;19.10;100726;;;;591853;239;24080;-81
2023/08/19 02:26:26;;;;;;;19.27;16.30;;;19.40;99.90;19.10;100729;;;;591293;239;23041;-82
2023/08/19 02:28:55;;;;;;;21.63;15.43;;;19.40;99.90;19.20;100723;;;;591363;239;23040;-80
2023/08/19 02:31:23;;;;;;;22.43;15.20;;;19.40;99.90;19.20;100724;;;;591550;239;23049;-82
2023/08/19 02:33:51;;;;;;;21.20;15.73;;;19.40;99.90;19.20;100725;;;;591564;239;23036;-80
2023/08/19 02:36:19;;;;;;;27.37;14.87;;;19.50;99.90;19.30;100720;;;;591736;239;24079;-80
2023/08/19 02:38:47;;;;;;;23.60;16.50;;;19.50;99.90;19.30;100715;;;;592014;239;24151;-81
2023/08/19 02:41:15;;;;;;;21.90;16.07;;;19.50;99.90;19.30;100722;;;;592287;239;23103;-81
2023/08/19 02:43:43;;;;;;;27.47;16.37;;;19.50;99.90;19.30;100716;;;;592410;239;23131;-81
2023/08/19 02:46:11;;;;;;;33.60;18.17;;;19.50;99.90;19.30;100720;;;;592019;240;23040;-80
2023/08/19 02:48:39;;;;;;;24.57;17.10;;;19.50;99.90;19.30;100717;;;;592181;240;23051;-80
2023/08/19 02:51:07;;;;;;;26.27;18.73;;;19.60;99.90;19.30;100727;;;;592203;240;23044;-81
2023/08/19 02:53:35;;;;;;;28.27;18.70;;;19.50;99.90;19.30;100720;;;;592220;240;24013;-80
2023/08/19 02:56:06;;;;;;;26.07;17.80;;;19.60;99.90;19.30;100714;;;;591598;240;24144;-82
2023/08/19 02:58:30;;;;;;;31.67;18.10;;;19.60;99.90;19.40;100721;;;;591054;240;24067;-81
2023/08/19 03:00:58;;;;;;;27.77;18.87;;;19.60;99.90;19.40;100715;;;;591956;240;24007;-82
2023/08/19 03:03:30;;;;;;;33.57;19.43;;;19.60;99.90;19.40;100710;;;;601823;239;23039;-82
2023/08/19 03:06:03;;;;;;;35.43;20.23;;;19.60;99.90;19.40;100718;;;;591629;240;23085;-81
2023/08/19 03:08:29;;;;;;;42.53;19.33;;;19.60;99.90;19.40;100720;;;;591727;240;23059;-83
2023/08/19 03:11:00;;;;;;;30.23;19.83;;;19.60;99.90;19.50;100714;;;;591592;240;24016;-82
2023/08/19 03:13:25;;;;;;;32.10;20.53;;;19.70;99.90;19.50;100710;;;;588338;240;24029;-85
2023/08/19 03:15:53;;;;;;;42.90;19.90;;;19.70;99.90;19.50;100705;;;;590909;240;24091;-82
2023/08/19 03:18:21;;;;;;;34.10;20.30;;;19.70;99.90;19.50;100704;;;;591030;240;23072;-83
2023/08/19 03:20:49;;;;;;;36.07;20.30;;;19.70;99.90;19.50;100714;;;;592011;239;24029;-82
2023/08/19 03:23:17;;;;;;;45.73;20.30;;;19.70;99.90;19.50;100705;;;;588641;239;24081;-81
2023/08/19 03:25:45;;;;;;;30.50;19.37;;;19.70;99.90;19.60;100701;;;;592014;239;24074;-80
2023/08/19 03:28:13;;;;;;;42.00;20.27;;;19.80;99.90;19.60;100693;;;;579011;244;24051;-80
2023/08/19 03:30:42;;;;;;;36.37;20.17;;;19.80;99.90;19.60;100699;;;;591381;239;23086;-81
2023/08/19 03:33:10;;;;;;;51.60;20.60;;;19.80;99.90;19.60;100698;;;;588680;239;23062;-80
2023/08/19 03:35:39;;;;;;;58.10;19.70;;;19.80;99.90;19.60;100699;;;;591464;239;24056;-81
2023/08/19 03:38:08;;;;;;;59.03;20.70;;;19.80;99.90;19.60;100700;;;;591344;239;24024;-80
2023/08/19 03:40:36;;;;;;;47.67;20.23;;;19.80;99.90;19.60;100704;;;;591336;239;24016;-81
2023/08/19 03:43:04;;;;;;;41.33;20.73;;;19.80;99.90;19.60;100691;;;;591780;239;24027;-81
2023/08/19 03:45:32;;;;;;;59.07;20.10;;;19.80;99.90;19.60;100700;;;;601444;239;24120;-80
2023/08/19 03:47:59;;;;;;;60.37;20.40;;;19.80;99.90;19.70;100703;;;;576871;245;23097;-81
2023/08/19 03:50:27;;;;;;;79.13;20.87;;;19.90;99.90;19.70;100696;;;;591201;239;23048;-80
2023/08/19 03:52:55;;;;;;;80.83;20.63;;;19.90;99.90;19.70;100702;;;;591310;239;24007;-81
2023/08/19 03:55:23;;;;;;;86.60;22.77;;;19.90;99.90;19.70;100703;;;;591157;239;24027;-80
2023/08/19 03:57:51;;;;;;;55.43;19.63;;;19.90;99.90;19.70;100696;;;;590733;240;24071;-81
2023/08/19 04:00:19;;;;;;;83.43;22.27;;;19.90;99.90;19.70;100703;;;;590934;240;24137;-80
2023/08/19 04:02:47;;;;;;;73.07;21.83;;;19.90;99.90;19.70;100703;;;;591001;240;23057;-81
2023/08/19 04:05:15;;;;;;;110.50;23.27;;;19.90;99.90;19.80;100699;;;;590919;240;24051;-81
2023/08/19 04:07:46;;;;;;;73.23;21.03;;;19.90;99.90;19.80;100701;;;;590840;240;24044;-81
2023/08/19 04:10:11;;;;;;;66.63;20.77;;;19.90;99.90;19.70;100709;;;;591429;240;24044;-85
2023/08/19 04:12:39;;;;;;;72.43;19.97;;;20.00;99.90;19.70;100710;;;;591604;240;24047;-82
2023/08/19 04:15:08;;;;;;;80.40;22.03;;;20.00;99.90;19.70;100701;;;;591180;240;24033;-86
2023/08/19 04:17:34;;;;;;;107.23;21.60;;;20.00;99.90;19.70;100704;;;;588405;240;24074;-81
2023/08/19 04:20:09;;;;;;;64.70;18.57;;;20.00;99.90;19.80;100702;;;;576066;245;24103;-85
2023/08/19 04:22:40;;;;;;;84.57;19.73;;;20.00;99.90;19.80;100701;;;;600355;238;23123;-81
2023/08/19 04:25:05;;;;;;;78.67;20.03;;;20.00;99.90;19.80;100699;;;;599550;239;23084;-80
2023/08/19 04:27:33;;;;;;;98.03;20.00;;;20.00;99.90;19.90;100699;;;;600544;239;24048;-79
2023/08/19 04:30:03;;;;;;;86.53;19.30;;;20.10;99.90;19.90;100698;;;;590393;240;24031;-78
2023/08/19 04:32:31;;;;;;;95.17;18.60;;;20.20;99.90;20.00;100705;;;;591705;239;24037;-81
2023/08/19 04:34:59;;;;;;;113.83;20.63;;;20.20;99.90;20.00;100705;;;;592071;239;24106;-86
2023/08/19 04:37:27;;;;;;;89.60;19.70;;;20.20;99.90;20.00;100704;;;;591732;239;24015;-75
2023/08/19 04:39:55;;;;;;;103.77;21.13;;;20.20;99.90;20.10;100708;;;;591773;239;24023;-76
2023/08/19 04:42:23;;;;;;;83.80;18.60;;;20.30;99.90;20.10;100716;;;;591385;239;24078;-74
2023/08/19 04:44:51;;;;;;;77.57;18.43;;;20.30;99.90;20.10;100712;;;;591812;239;24048;-75
2023/08/19 04:47:19;;;;;;;62.17;18.63;;;20.30;99.90;20.10;100714;;;;591250;239;24050;-80
2023/08/19 04:49:47;;;;;;;160.93;27.62;;;20.30;99.90;20.10;100712;;;;586087;239;34995;-78
2023/08/19 04:52:15;;;;;;;129.27;21.70;;;20.30;99.90;20.20;100701;;;;591305;239;24040;-78
2023/08/19 04:54:43;;;;;;;104.63;20.97;;;20.40;99.90;20.20;100706;;;;590854;239;24020;-79
2023/08/19 04:57:11;;;;;;;84.67;20.03;;;20.40;99.90;20.30;100712;;;;591266;239;24020;-79
2023/08/19 04:59:39;;;;;;;100.97;19.70;;;20.50;99.90;20.30;100726;;;;590599;239;24134;-78
2023/08/19 05:02:07;;;;;;;65.63;16.67;;;20.50;99.90;20.30;100719;;;;590871;239;24024;-81
2023/08/19 05:04:35;;;;;;;94.37;19.03;;;20.50;99.90;20.40;100723;;;;591345;239;24019;-84
2023/08/19 05:07:03;;;;;;;85.43;18.33;;;20.60;99.90;20.40;100724;;;;591646;239;24036;-78
2023/08/19 05:09:31;;;;;;;90.70;18.80;;;20.60;99.90;20.50;100728;;;;591958;240;24020;-83
2023/08/19 05:11:59;;;;;;;98.10;18.43;;;20.70;99.90;20.60;100723;;;;591898;240;24078;-80
2023/08/19 05:14:27;;;;;;;50.07;18.00;;;20.70;99.90;20.60;100726;;;;591735;240;24042;-76
2023/08/19 05:16:55;;;;;;;63.80;18.63;;;20.80;99.90;20.70;100732;;;;591758;240;23060;-78
2023/08/19 05:19:24;;;;;;;61.53;17.63;;;20.80;99.90;20.70;100725;;;;591198;240;24132;-77
2023/08/19 05:21:51;;;;;;;40.17;16.27;;;20.90;99.90;20.80;100733;;;;590838;240;24024;-76
2023/08/19 05:24:19;;;;;;;40.73;19.07;;;20.90;99.90;20.90;100727;;;;590743;240;24034;-77
2023/08/19 05:26:47;;;;;;;58.10;19.17;;;21.10;99.90;21.00;100729;;;;590901;240;24040;-77
2023/08/19 05:29:16;;;;;;;55.50;17.63;;;21.10;99.90;21.10;100735;;;;591166;240;24062;-77
2023/08/19 05:31:43;;;;;;;46.87;18.20;;;21.30;99.90;21.10;100730;;;;590576;240;24037;-78
2023/08/19 05:34:11;;;;;;;53.27;18.47;;;21.30;99.90;21.20;100724;;;;590755;240;24071;-84
2023/08/19 05:36:39;;;;;;;33.63;18.00;;;21.30;99.90;21.10;100730;;;;590752;240;24015;-84
2023/08/19 05:39:07;;;;;;;37.80;15.77;;;21.40;99.90;21.10;100736;;;;590837;240;24108;-83
2023/08/19 05:41:35;;;;;;;47.80;17.23;;;21.30;99.90;21.20;100740;;;;590672;240;24050;-77
2023/08/19 05:44:08;;;;;;;28.47;16.53;;;21.40;99.90;21.30;100753;;;;592070;239;24040;-76
2023/08/19 05:46:33;;;;;;;64.10;17.87;;;21.40;99.90;21.30;100765;;;;591460;239;24062;-77
2023/08/19 05:49:01;;;;;;;37.57;16.00;;;21.40;99.90;21.30;100763;;;;600930;239;23054;-82
2023/08/19 05:51:30;;;;;;;45.47;17.47;;;21.40;99.90;21.30;100762;;;;591622;239;24037;-78
2023/08/19 05:54:04;;;;;;;83.97;16.07;;;21.40;99.90;21.30;100761;;;;591259;239;24072;-76
2023/08/19 05:56:30;;;;;;;47.85;19.10;;;21.50;99.90;21.30;100763;;;;595306;239;34989;-78
2023/08/19 05:58:58;;;;;;;44.55;20.12;;;21.50;99.90;21.30;100760;;;;586137;239;35084;-83
2023/08/19 06:01:27;;;;;;;37.50;20.85;;;21.60;99.90;21.40;100769;;;;585764;239;34989;-83
2023/08/19 06:03:56;;;;;;;56.87;15.80;;;21.60;99.90;21.40;100776;;;;591052;239;24074;-77
2023/08/19 06:06:26;;;;;;;45.80;16.43;;;21.70;99.90;21.50;100769;;;;590942;239;24028;-78
2023/08/19 06:08:52;;;;;;;26.10;15.07;;;21.70;99.90;21.50;100769;;;;590959;239;23045;-77
2023/08/19 06:11:20;;;;;;;51.53;16.77;;;21.70;99.90;21.50;100774;;;;590986;239;24063;-81
2023/08/19 06:13:49;;;;;;;41.17;17.47;;;21.80;99.90;21.50;100781;;;;591068;239;24047;-84
2023/08/19 06:16:16;;;;;;;39.27;14.17;;;21.80;99.90;21.50;100781;;;;591036;239;24052;-79
2023/08/19 06:18:44;;;;;;;23.80;14.87;;;21.80;99.90;21.50;100774;;;;590870;239;24072;-86
2023/08/19 06:21:15;;;;;;;44.37;15.57;;;21.80;99.90;21.60;100788;;;;590796;240;24023;-83
2023/08/19 06:23:40;;;;;;;28.57;14.57;;;21.80;99.90;21.60;100786;;;;599588;239;24027;-77
2023/08/19 06:26:08;;;;;;;33.07;15.73;;;21.80;99.90;21.70;100788;;;;590828;240;24019;-83
2023/08/19 06:28:36;;;;;;;28.30;15.30;;;21.80;99.90;21.70;100788;;;;590688;240;24074;-76
2023/08/19 06:31:04;;;;;;;36.57;15.60;;;21.90;99.90;21.80;100796;;;;591176;240;24024;-78
2023/08/19 06:33:31;;;;;;;34.97;16.00;;;22.00;99.90;21.90;100784;;;;590333;240;24034;-82
2023/08/19 06:36:00;;;;;;;27.33;16.07;;;22.10;99.90;22.00;100792;;;;590570;240;24052;-81
2023/08/19 06:38:27;;;;;;;25.10;16.47;;;22.10;99.90;22.10;100793;;;;590655;240;23054;-78
2023/08/19 06:41:10;;;;;;;31.23;15.67;;;22.30;99.90;22.10;100793;;;;590590;240;24024;-76
2023/08/19 06:43:38;;;;;;;22.63;16.03;;;22.30;99.90;22.20;100804;;;;591369;240;23069;-76
2023/08/19 06:46:06;;;;;;;29.67;16.73;;;22.40;99.90;22.30;100796;;;;590833;240;24084;-76
2023/08/19 06:48:37;;;;;;;30.63;17.10;;;22.50;99.90;22.40;100792;;;;590821;240;23074;-76
2023/08/19 06:51:03;;;;;;;31.17;17.07;;;22.70;99.90;22.60;100793;;;;590416;240;24050;-76
2023/08/19 06:53:34;;;;;;;26.27;17.53;;;22.90;99.90;22.80;100792;;;;590246;240;23048;-75
2023/08/19 06:56:20;;;;;;;22.87;17.97;;;23.10;99.90;23.00;100797;;;;591844;239;24034;-77
2023/08/19 06:59:09;;;;;;;23.10;18.33;;;23.10;99.90;23.30;100797;;;;592010;239;24054;-77
2023/08/19 07:01:38;;;;;;;20.90;17.10;;;23.70;99.90;23.60;100792;;;;588349;244;24138;-76
2023/08/19 07:04:07;;;;;;;25.03;17.47;;;24.10;99.90;23.90;100799;;;;600883;239;23061;-77
2023/08/19 07:06:35;;;;;;;25.83;18.40;;;24.30;99.90;24.20;100799;;;;588588;239;24063;-77
2023/08/19 07:09:07;;;;;;;20.83;16.30;;;24.50;99.90;24.40;100795;;;;576678;245;23067;-76
2023/08/19 07:11:35;;;;;;;25.60;16.90;;;24.50;99.90;24.60;100792;;;;600626;239;23040;-76
2023/08/19 07:14:05;;;;;;;19.70;17.60;;;24.80;99.90;24.80;100789;;;;588588;239;23045;-76
2023/08/19 07:16:31;;;;;;;17.73;15.93;;;25.00;99.90;24.90;100790;;;;590874;239;23060;-76
2023/08/19 07:18:59;;;;;;;17.07;15.27;;;25.20;99.90;25.00;100791;;;;576440;245;23095;-77
2023/08/19 07:21:27;;;;;;;17.47;15.73;;;25.20;99.90;25.20;100798;;;;593927;239;24051;-77
2023/08/19 07:23:56;;;;;;;20.30;16.67;;;25.50;99.90;25.40;100796;;;;590876;239;23065;-77
2023/08/19 07:26:25;;;;;;;16.97;15.17;;;25.70;99.90;25.60;100797;;;;576452;245;23173;-78
2023/08/19 07:28:56;;;;;;;16.87;15.17;;;25.90;99.90;25.80;100804;;;;591085;239;23054;-77
2023/08/19 07:31:24;;;;;;;18.90;15.87;;;25.90;99.90;25.80;100804;;;;590472;240;23052;-77
2023/08/19 07:33:52;;;;;;;16.97;15.13;;;26.00;99.90;25.80;100808;;;;591193;240;23034;-77
2023/08/19 07:36:23;;;;;;;17.00;15.30;;;26.10;99.90;25.80;100811;;;;590263;240;23046;-78
2023/08/19 07:38:48;;;;;;;16.52;14.93;;;26.10;99.90;25.90;100816;;;;590579;240;24090;-78
2023/08/19 07:41:17;;;;;;;19.53;17.43;;;26.20;99.90;26.00;100814;;;;590713;240;23052;-79
2023/08/19 07:43:45;;;;;;;18.23;16.33;;;26.30;99.90;26.10;100812;;;;590717;240;23122;-78
2023/08/19 07:46:15;;;;;;;19.97;18.07;;;26.30;99.90;26.50;100805;;;;590775;240;23044;-76
2023/08/19 07:48:41;;;;;;;17.70;14.93;;;26.70;99.90;27.30;100805;;;;590129;240;24052;-77
2023/08/19 07:51:12;;;;;;;15.90;14.48;;;27.30;99.90;28.10;100804;;;;590801;240;24057;-77
2023/08/19 07:53:37;;;;;;;17.85;16.15;;;28.20;99.90;29.20;100808;;;;590311;240;23055;-77
2023/08/19 07:56:05;;;;;;;17.25;15.60;;;29.20;99.90;30.80;100811;;;;590876;240;23053;-78
2023/08/19 07:58:32;;;;;;;15.18;13.77;;;30.70;99.90;33.30;100813;;;;599913;239;23051;-80
2023/08/19 08:01:00;;;;;;;15.23;13.93;;;33.00;99.90;35.60;100817;;;;591049;240;23051;-79
2023/08/19 08:03:28;;;;;;;15.02;13.73;;;35.40;99.90;37.60;100807;;;;590829;240;23091;-79
2023/08/19 08:05:56;;;;;;;14.57;13.15;;;37.40;99.90;39.50;100809;;;;591032;240;23027;-81
2023/08/19 08:08:25;;;;;;;13.20;11.95;;;40.90;91.00;41.00;100812;;;;592717;239;23041;-80
2023/08/19 08:10:54;;;;;;;12.23;11.27;;;42.40;82.70;42.50;100811;;;;592260;239;23025;-79
2023/08/19 08:13:24;;;;;;;13.07;12.00;;;42.30;82.50;43.90;100808;;;;592106;239;23025;-79
2023/08/19 08:15:49;;;;;;;13.52;12.57;;;43.80;71.70;44.70;100816;;;;588911;239;24091;-78
2023/08/19 08:18:17;;;;;;;12.98;11.82;;;44.80;66.60;45.50;100818;;;;579292;245;23059;-80
2023/08/19 08:20:45;;;;;;;12.80;11.90;;;45.60;63.30;46.30;100816;;;;591808;239;23048;-79
2023/08/19 08:23:13;;;;;;;12.27;11.32;;;46.50;59.50;47.00;100821;;;;591812;239;23058;-79
2023/08/19 08:25:41;;;;;;;12.55;11.60;;;47.20;57.80;47.80;100820;;;;591488;239;23080;-79
2023/08/19 08:28:09;;;;;;;11.68;10.88;;;48.00;55.60;48.30;100830;;;;591657;239;23068;-78
2023/08/19 08:30:37;;;;;;;12.98;12.07;;;48.60;54.10;48.70;100837;;;;591715;239;23036;-82
2023/08/19 08:33:05;;;;;;;12.57;11.50;;;49.10;52.90;49.10;100836;;;;591210;239;23044;-81
2023/08/19 08:35:33;;;;;;;11.68;10.95;;;49.50;51.80;49.50;100831;;;;591170;239;23072;-80
2023/08/19 08:38:01;;;;;;;13.70;12.70;;;49.80;50.30;49.50;100830;;;;591057;239;23054;-85
2023/08/19 08:40:29;;;;;;;13.35;12.15;;;50.10;48.60;49.10;100838;;;;591587;239;23059;-79
2023/08/19 08:42:57;;;;;;;12.35;11.57;;;49.90;48.80;49.50;100835;;;;588557;240;23045;-81
2023/08/19 08:45:31;;;;;;;14.13;12.30;;;50.10;49.40;50.00;100843;;;;577487;245;24103;-81
2023/08/19 08:47:56;;;;;;;13.70;12.60;;;50.80;47.30;50.30;100847;;;;590762;240;23054;-80
2023/08/19 08:50:25;;;;;;;14.87;13.57;;;50.60;46.80;49.70;100850;;;;591424;240;23037;-81
2023/08/19 08:52:53;;;;;;;14.85;13.75;;;50.50;46.70;49.50;100847;;;;591339;240;23065;-86
2023/08/19 08:55:21;;;;;;;14.98;14.02;;;50.20;47.30;49.20;100855;;;;591258;240;24104;-79
2023/08/19 08:57:49;;;;;;;13.62;12.70;;;50.20;47.00;48.80;100853;;;;600509;239;23060;-82
2023/08/19 09:00:17;;;;;;;13.57;12.43;;;49.90;47.30;49.00;100854;;;;591232;240;23030;-79
2023/08/19 09:02:45;;;;;;;15.30;14.07;;;49.80;47.80;49.60;100861;;;;591222;240;23022;-81
2023/08/19 09:05:16;;;;;;;13.62;12.60;;;50.20;47.60;50.00;100858;;;;578794;245;24120;-83
2023/08/19 09:07:43;;;;;;;15.48;14.25;;;50.60;46.30;50.10;100858;;;;600265;239;23068;-87
2023/08/19 09:10:08;;;;;;;13.68;12.68;;;51.00;45.90;49.90;100856;;;;576157;245;23087;-83
2023/08/19 09:12:36;;;;;;;14.35;13.35;;;51.00;45.50;50.20;100851;;;;589375;240;24091;-81
2023/08/19 09:15:04;;;;;;;14.68;13.00;;;51.00;45.60;50.60;100854;;;;588567;240;23077;-82
2023/08/19 09:17:35;;;;;;;14.43;13.43;;;51.40;45.70;50.50;100856;;;;588492;237;23086;-82
2023/08/19 09:20:03;;;;;;;17.33;15.93;;;51.60;44.60;49.70;100860;;;;592378;239;23072;-85
2023/08/19 09:22:28;;;;;;;17.42;16.05;;;51.20;44.80;48.30;100868;;;;591906;239;23051;-85
2023/08/19 09:24:57;;;;;;;15.50;14.40;;;50.10;45.60;47.90;100870;;;;591966;239;23064;-80
2023/08/19 09:27:30;;;;;;;18.33;16.73;;;49.30;46.80;47.40;100872;;;;591763;239;23058;-79
2023/08/19 09:29:58;;;;;;;17.50;16.15;;;48.80;47.20;47.60;100872;;;;591201;239;24090;-80
2023/08/19 09:32:33;;;;;;;17.23;15.93;;;49.00;46.90;47.90;100868;;;;591457;239;25118;-79
2023/08/19 09:35:00;;;;;;;16.55;15.20;;;49.00;46.90;47.90;100864;;;;591198;239;23066;-81
2023/08/19 09:37:28;;;;;;;18.87;17.02;;;49.20;47.30;48.40;100864;;;;590712;239;23049;-82
2023/08/19 09:39:56;;;;;;;18.75;17.20;;;49.60;46.90;48.70;100860;;;;591031;239;23030;-80
2023/08/19 09:42:25;;;;;;;20.23;18.70;;;50.30;45.60;48.80;100860;;;;586348;239;35113;-79
2023/08/19 09:44:56;;;;;;;17.95;16.60;;;50.30;45.60;48.20;100866;;;;591563;239;23056;-81
2023/08/19 09:47:21;;;;;;;17.58;16.17;;;50.10;45.70;47.90;100869;;;;588501;239;23120;-80
2023/08/19 09:49:55;;;;;;;17.50;16.00;;;49.80;46.00;48.00;100875;;;;590799;239;23057;-80
2023/08/19 09:52:20;;;;;;;18.73;17.23;;;49.80;46.00;48.70;100878;;;;590987;239;23095;-80
2023/08/19 09:54:52;;;;;;;18.98;16.85;;;50.30;45.80;49.40;100883;;;;591139;240;23041;-79
2023/08/19 09:57:19;;;;;;;20.17;18.55;;;50.80;45.20;50.20;100874;;;;586282;240;23163;-84
2023/08/19 09:59:47;;;;;;;18.20;16.80;;;51.50;44.10;49.70;100878;;;;577556;245;23126;-79
2023/08/19 10:02:18;;;;;;;19.45;17.80;;;51.50;44.10;49.00;100877;;;;590477;240;23051;-80
2023/08/19 10:04:43;;;;;;;20.55;18.70;;;51.00;44.30;48.70;100874;;;;587965;240;23122;-78
2023/08/19 10:07:11;;;;;;;21.80;19.95;;;50.00;44.60;47.80;100875;;;;590934;240;23081;-79
2023/08/19 10:09:39;;;;;;;19.27;17.67;;;50.00;44.60;46.40;100883;;;;575833;245;23180;-80
2023/08/19 10:12:07;;;;;;;19.27;17.67;;;48.90;45.70;45.40;100878;;;;593635;239;23034;-79
2023/08/19 10:14:36;;;;;;;17.70;16.10;;;46.80;46.90;44.30;100873;;;;587128;245;23076;-78
2023/08/19 10:17:05;;;;;;;20.25;18.42;;;46.80;47.30;43.10;100871;;;;590879;240;23042;-77
2023/08/19 10:19:32;;;;;;;20.20;18.35;;;45.80;48.70;42.00;100875;;;;578477;245;23080;-78
2023/08/19 10:22:00;;;;;;;20.30;18.67;;;44.70;49.90;40.70;100868;;;;593374;240;24112;-78
2023/08/19 10:24:28;;;;;;;18.95;17.23;;;43.50;51.50;39.50;100873;;;;601172;239;24056;-78
2023/08/19 10:26:56;;;;;;;19.35;17.50;;;42.30;53.10;38.70;100874;;;;589825;240;23051;-85
2023/08/19 10:29:27;;;;;;;19.08;17.10;;;41.20;54.80;38.20;100877;;;;591241;237;23068;-85
2023/08/19 10:31:52;;;;;;;20.23;18.55;;;40.50;56.20;37.40;100874;;;;589171;239;23158;-83
2023/08/19 10:34:20;;;;;;;18.98;17.37;;;38.60;59.50;36.50;100874;;;;592325;239;23060;-86
2023/08/19 10:37:09;;;;;;;19.25;17.65;;;38.60;59.50;35.40;100875;;;;589588;239;23059;-85
2023/08/19 10:39:40;;;;;;;23.00;20.90;;;37.50;62.40;34.70;100872;;;;586571;239;35024;-84
2023/08/19 10:42:05;;;;;;;18.62;16.80;;;36.50;65.50;34.10;100874;;;;588301;239;23045;-79
2023/08/19 10:44:33;;;;;;;18.20;16.40;;;35.70;66.30;33.40;100873;;;;588706;239;24081;-78
2023/08/19 10:47:11;;;;;;;20.48;16.35;;;34.90;68.70;32.70;100868;;;;578753;244;23111;-78
2023/08/19 10:49:35;;;;;;;16.75;15.10;;;34.00;71.50;32.10;100869;;;;590939;239;24136;-79
2023/08/19 10:52:06;;;;;;;17.55;15.85;;;33.20;74.10;31.80;100870;;;;588128;239;24093;-77
2023/08/19 10:54:43;;;;;;;19.60;16.52;;;32.70;76.20;31.70;100872;;;;578727;245;23081;-79
2023/08/19 10:57:23;;;;;;;15.50;13.93;;;32.40;79.00;31.60;100863;;;;590953;239;23114;-77
2023/08/19 10:59:54;;;;;;;15.43;13.98;;;32.10;78.70;31.20;100869;;;;575679;245;23112;-78
2023/08/19 11:02:22;;;;;;;18.75;16.45;;;31.60;82.50;31.00;100860;;;;589630;239;23077;-78